Time;durP1;ratioP1;P1;durP2;ratioP2;P2;SDS_P1;SDS_P2;PMS_P1;PMS_P2;Temp;Humidity;BMP_temperature;BMP_pressure;BME280_temperature;BME280_humidity;BME280_pressure;Samples;Min_cycle;Max_cycle;Signal;HPM_P1;HPM_P2
2022/03/29 00:01:17;;;;;;;9.07;6.38;;;19.00;44.50;18.10;101298.00;;;;5048290;28;20136;-64
2022/03/29 00:04:03;;;;;;;7.63;6.20;;;19.00;44.60;18.10;101306.00;;;;5057910;28;20460;-64
2022/03/29 00:06:49;;;;;;;8.00;6.72;;;19.00;44.60;18.10;101306.00;;;;5058220;28;20040;-64
2022/03/29 00:09:36;;;;;;;10.43;6.88;;;19.00;44.60;18.10;101305.00;;;;5059167;28;20048;-64
2022/03/29 00:12:22;;;;;;;8.77;6.22;;;19.00;44.60;18.10;101305.00;;;;5055327;28;20356;-64
2022/03/29 00:15:08;;;;;;;8.40;6.80;;;19.00;44.60;18.10;101301.00;;;;5059189;28;20045;-64
2022/03/29 00:17:55;;;;;;;7.95;6.35;;;19.00;44.60;18.10;101304.00;;;;5044625;28;20129;-64
2022/03/29 00:20:41;;;;;;;8.13;6.35;;;19.00;44.70;18.10;101293.00;;;;5055307;28;20565;-64
2022/03/29 00:23:27;;;;;;;7.88;6.45;;;19.00;44.60;18.10;101295.00;;;;5047472;28;20090;-64
2022/03/29 00:26:14;;;;;;;8.38;6.53;;;19.00;44.70;18.10;101290.00;;;;5056792;28;20490;-64
2022/03/29 00:29:00;;;;;;;8.52;6.90;;;18.90;44.60;18.10;101286.00;;;;5060652;28;20147;-65
2022/03/29 00:31:46;;;;;;;10.38;6.55;;;19.00;44.70;18.00;101283.00;;;;5052377;28;20048;-64
2022/03/29 00:34:34;;;;;;;9.20;7.32;;;18.90;44.60;18.10;101288.00;;;;5057678;28;20133;-64
2022/03/29 00:37:20;;;;;;;8.20;6.82;;;18.90;44.70;18.00;101276.00;;;;5041339;28;20044;-64
2022/03/29 00:40:08;;;;;;;7.43;6.28;;;19.00;44.70;18.00;101271.00;;;;5043627;28;20103;-64
2022/03/29 00:42:54;;;;;;;10.20;7.68;;;18.90;44.70;18.00;101270.00;;;;5030440;28;20556;-64
2022/03/29 00:45:40;;;;;;;10.32;7.28;;;19.00;44.80;18.00;101274.00;;;;5060463;28;20033;-64
2022/03/29 00:48:26;;;;;;;8.52;6.60;;;19.00;44.80;18.00;101261.00;;;;5050165;28;20047;-64
2022/03/29 00:51:12;;;;;;;9.68;7.45;;;18.90;44.70;18.00;101264.00;;;;5056104;28;20394;-65
2022/03/29 00:53:58;;;;;;;10.90;7.32;;;18.90;44.80;18.00;101264.00;;;;5062794;28;20037;-64
2022/03/29 00:56:44;;;;;;;9.55;6.93;;;18.90;44.80;18.00;101257.00;;;;5038591;28;20040;-64
2022/03/29 00:59:30;;;;;;;10.55;7.40;;;18.90;44.80;18.00;101260.00;;;;5060155;28;20394;-64
2022/03/29 01:02:16;;;;;;;8.75;7.00;;;18.90;44.80;18.00;101255.00;;;;5044117;28;20044;-64
2022/03/29 01:05:03;;;;;;;10.10;7.15;;;18.90;44.80;18.00;101258.00;;;;5057593;28;20625;-64
2022/03/29 01:07:49;;;;;;;11.18;8.30;;;18.90;44.80;18.00;101255.00;;;;5050594;28;20037;-64
2022/03/29 01:10:35;;;;;;;10.00;7.72;;;18.90;44.80;18.00;101253.00;;;;5055631;28;20482;-64
2022/03/29 01:13:21;;;;;;;11.02;8.07;;;18.90;44.80;18.00;101254.00;;;;5054139;28;20037;-64
2022/03/29 01:19:12;;;;;;;11.60;8.27;;;18.90;44.80;18.00;101244.00;;;;5043983;28;20076;-64
2022/03/29 01:21:59;;;;;;;10.70;7.38;;;18.90;44.80;18.00;101239.00;;;;5038303;28;20080;-64
2022/03/29 01:24:49;;;;;;;10.00;7.50;;;18.90;44.80;18.00;101238.00;;;;5056234;28;20135;-64
2022/03/29 01:27:36;;;;;;;9.60;7.30;;;18.90;44.80;18.00;101234.00;;;;5040757;28;20042;-64
2022/03/29 01:30:22;;;;;;;10.73;7.63;;;18.90;44.80;18.00;101237.00;;;;5059870;28;20037;-64
2022/03/29 01:33:08;;;;;;;11.23;8.25;;;18.90;44.80;18.00;101235.00;;;;5038956;28;20045;-64
2022/03/29 01:35:54;;;;;;;10.00;7.38;;;18.90;44.80;18.00;101235.00;;;;5044687;28;20052;-64
2022/03/29 01:38:40;;;;;;;9.25;7.93;;;18.90;44.80;18.00;101222.00;;;;5046330;28;20032;-64
2022/03/29 01:41:29;;;;;;;10.30;8.20;;;18.90;44.80;18.00;101224.00;;;;5051263;28;20076;-64
2022/03/29 01:44:15;;;;;;;9.88;8.23;;;18.90;44.80;18.00;101214.00;;;;5055355;28;20051;-64
2022/03/29 01:47:01;;;;;;;10.20;7.63;;;18.90;44.80;18.00;101217.00;;;;5051284;28;20037;-64
2022/03/29 01:49:47;;;;;;;11.35;8.25;;;18.90;44.80;18.00;101216.00;;;;5041604;28;20040;-65
2022/03/29 01:52:45;;;;;;;9.70;7.53;;;18.80;44.70;18.00;101219.00;;;;5057794;28;20056;-64
2022/03/29 01:55:31;;;;;;;10.18;7.13;;;18.90;44.80;18.00;101212.00;;;;5055312;28;20040;-65
2022/03/29 01:58:17;;;;;;;11.57;7.82;;;18.90;44.80;18.00;101209.00;;;;5055330;28;20285;-64
2022/03/29 02:01:03;;;;;;;8.80;7.38;;;18.90;44.80;18.00;101212.00;;;;5050735;28;20053;-64
2022/03/29 02:03:49;;;;;;;10.25;7.35;;;18.90;44.80;18.00;101201.00;;;;5044335;28;20463;-64
2022/03/29 02:06:35;;;;;;;9.68;7.72;;;18.90;44.80;18.00;101199.00;;;;5040899;28;20036;-64
2022/03/29 02:09:21;;;;;;;10.70;8.15;;;18.90;44.80;18.00;101199.00;;;;5055307;28;20075;-64
2022/03/29 02:12:12;;;;;;;9.38;7.50;;;18.90;44.80;18.00;101188.00;;;;5054193;28;20100;-64
2022/03/29 02:14:58;;;;;;;8.57;7.45;;;18.90;44.80;18.00;101193.00;;;;5054266;28;20053;-64
2022/03/29 02:17:45;;;;;;;9.98;7.55;;;18.90;44.80;18.00;101199.00;;;;5044692;28;20049;-64
2022/03/29 02:20:31;;;;;;;9.48;6.88;;;18.90;44.80;18.00;101186.00;;;;5057080;28;20048;-64
2022/03/29 02:23:17;;;;;;;9.82;7.28;;;18.90;44.80;18.00;101195.00;;;;5051715;28;20164;-64
2022/03/29 02:26:04;;;;;;;9.02;7.10;;;18.90;44.80;18.00;101194.00;;;;5053500;28;20071;-64
2022/03/29 02:28:50;;;;;;;9.95;7.88;;;18.90;44.80;18.00;101196.00;;;;5053524;28;20056;-64
2022/03/29 02:31:36;;;;;;;9.85;6.95;;;18.90;44.80;18.00;101193.00;;;;5059793;28;20090;-64
2022/03/29 02:34:22;;;;;;;10.15;7.38;;;18.90;44.70;17.90;101191.00;;;;5036143;28;20084;-64
2022/03/29 02:37:10;;;;;;;9.43;6.80;;;18.80;44.70;17.90;101187.00;;;;5058390;28;20490;-64
2022/03/29 02:39:56;;;;;;;11.77;7.45;;;18.90;44.70;17.90;101176.00;;;;5058418;28;20045;-64
2022/03/29 02:42:47;;;;;;;10.52;7.38;;;18.90;44.70;17.90;101175.00;;;;5052141;28;20041;-64
2022/03/29 02:45:33;;;;;;;10.57;7.63;;;18.80;44.70;17.90;101172.00;;;;5066284;28;20036;-64
2022/03/29 02:48:19;;;;;;;9.25;7.15;;;18.80;44.70;18.00;101167.00;;;;5054692;28;20474;-64
2022/03/29 02:51:05;;;;;;;8.27;6.95;;;18.80;44.70;17.90;101164.00;;;;5056905;28;20040;-64
2022/03/29 02:53:51;;;;;;;10.90;7.50;;;18.80;44.70;17.90;101164.00;;;;5058553;28;20103;-64
2022/03/29 02:56:37;;;;;;;8.48;6.65;;;18.80;44.70;17.90;101167.00;;;;5043998;28;20134;-64
2022/03/29 02:59:23;;;;;;;8.63;6.50;;;18.90;44.70;17.90;101173.00;;;;5058947;28;20045;-64
2022/03/29 03:02:09;;;;;;;9.65;7.10;;;18.80;44.70;17.90;101174.00;;;;5053524;28;20041;-64
2022/03/29 03:04:55;;;;;;;11.57;7.47;;;18.80;45.40;17.90;101175.00;;;;5054995;28;20060;-64
2022/03/29 03:07:43;;;;;;;11.00;7.63;;;18.80;44.70;17.90;101163.00;;;;5062575;28;20028;-64
2022/03/29 03:10:30;;;;;;;7.95;6.15;;;18.80;44.70;17.90;101157.00;;;;5043990;28;20037;-64
2022/03/29 03:13:16;;;;;;;10.27;7.40;;;18.80;44.70;17.90;101154.00;;;;5047054;28;20076;-65
2022/03/29 03:16:02;;;;;;;8.48;6.43;;;18.80;44.70;17.90;101160.00;;;;5042198;28;20059;-64
2022/03/29 03:18:48;;;;;;;8.80;6.60;;;18.80;44.70;17.90;101156.00;;;;5059649;28;20042;-64
2022/03/29 03:21:34;;;;;;;9.52;6.65;;;18.80;44.70;17.90;101147.00;;;;5061580;28;20386;-64
2022/03/29 03:24:20;;;;;;;9.10;7.32;;;18.80;44.70;17.90;101155.00;;;;5060079;28;20044;-64
2022/03/29 03:27:06;;;;;;;8.82;6.70;;;18.80;44.70;17.90;101155.00;;;;5058336;28;20044;-64
2022/03/29 03:29:52;;;;;;;8.55;6.22;;;18.70;44.70;17.90;101141.00;;;;5042541;28;20119;-64
2022/03/29 03:32:40;;;;;;;9.20;6.82;;;18.80;44.70;17.90;101142.00;;;;5066094;28;20102;-64
2022/03/29 03:35:26;;;;;;;10.45;6.93;;;18.80;44.70;17.90;101137.00;;;;5051276;28;20048;-65
2022/03/29 03:38:12;;;;;;;8.25;6.68;;;18.80;44.60;17.90;101130.00;;;;5048512;28;20049;-64
2022/03/29 03:40:58;;;;;;;9.27;6.70;;;18.80;44.70;17.90;101133.00;;;;5068343;28;20044;-64
2022/03/29 03:43:44;;;;;;;10.20;6.63;;;18.80;44.70;17.90;101131.00;;;;5056182;28;20044;-64
2022/03/29 03:46:30;;;;;;;7.50;6.22;;;18.80;44.60;17.90;101118.00;;;;5072804;28;20036;-64
2022/03/29 03:49:16;;;;;;;8.88;6.53;;;18.80;45.10;17.90;101119.00;;;;5066302;28;20670;-64
2022/03/29 03:52:04;;;;;;;9.75;7.03;;;18.80;44.60;17.90;101116.00;;;;5059724;28;20037;-64
2022/03/29 03:54:50;;;;;;;9.48;6.85;;;18.80;44.60;17.90;101102.00;;;;5050725;28;20101;-64
2022/03/29 03:57:36;;;;;;;8.80;6.68;;;18.80;44.60;17.90;101090.00;;;;5056715;28;20047;-65
2022/03/29 04:00:23;;;;;;;9.80;6.82;;;18.70;44.50;17.90;101102.00;;;;5069093;28;20105;-64
2022/03/29 04:03:09;;;;;;;11.00;7.45;;;18.80;44.60;17.90;101094.00;;;;5065994;28;20393;-64
2022/03/29 04:05:55;;;;;;;9.65;6.43;;;18.80;44.60;17.90;101084.00;;;;5064005;28;20055;-64
2022/03/29 04:08:41;;;;;;;8.27;6.07;;;18.80;44.60;17.90;101086.00;;;;5065806;28;20123;-64
2022/03/29 04:11:27;;;;;;;9.77;7.15;;;18.80;44.50;17.90;101081.00;;;;5060512;28;20052;-64
2022/03/29 04:14:13;;;;;;;9.73;6.45;;;18.80;44.50;17.90;101073.00;;;;5064369;28;20044;-64
2022/03/29 04:17:00;;;;;;;8.40;6.13;;;18.70;44.40;17.90;101068.00;;;;5055910;28;20041;-64
2022/03/29 04:19:46;;;;;;;10.02;6.28;;;18.70;44.50;17.90;101058.00;;;;5064336;28;20094;-64
2022/03/29 04:22:32;;;;;;;8.82;6.50;;;18.70;44.40;17.90;101060.00;;;;5051098;28;20099;-65
2022/03/29 04:25:21;;;;;;;11.23;6.57;;;18.70;44.40;17.90;101066.00;;;;5061802;28;20056;-64
2022/03/29 04:28:07;;;;;;;8.68;6.80;;;18.70;44.40;17.90;101065.00;;;;5056739;28;20123;-64
2022/03/29 04:30:55;;;;;;;9.30;6.70;;;18.70;44.40;17.90;101069.00;;;;5059870;28;20406;-64
2022/03/29 04:33:43;;;;;;;9.70;6.50;;;18.80;44.50;17.80;101071.00;;;;5076947;28;20036;-64
2022/03/29 04:36:29;;;;;;;8.68;6.65;;;18.80;44.50;17.80;101074.00;;;;5065602;28;20098;-64
2022/03/29 04:39:15;;;;;;;9.95;6.43;;;18.70;44.40;17.80;101079.00;;;;5076255;28;20044;-64
2022/03/29 04:42:01;;;;;;;9.30;6.65;;;18.70;44.40;17.80;101083.00;;;;5077107;28;20545;-64
2022/03/29 04:44:47;;;;;;;9.25;6.60;;;18.70;44.40;17.80;101082.00;;;;5080962;28;20032;-64
2022/03/29 04:47:33;;;;;;;8.75;6.57;;;18.70;44.40;17.80;101083.00;;;;5076101;28;20047;-64
2022/03/29 04:50:19;;;;;;;10.75;7.28;;;18.70;44.40;17.80;101090.00;;;;5080782;28;20041;-64
2022/03/29 04:53:06;;;;;;;10.38;7.13;;;18.70;44.40;17.80;101090.00;;;;5076974;28;20040;-64
2022/03/29 04:55:52;;;;;;;9.07;6.57;;;18.70;44.50;17.80;101088.00;;;;5061252;28;20474;-64
2022/03/29 04:58:38;;;;;;;9.30;6.63;;;18.70;44.50;17.80;101094.00;;;;5045589;28;20044;-64
2022/03/29 05:01:24;;;;;;;9.35;7.03;;;18.70;44.40;17.80;101094.00;;;;5051274;28;20077;-65
2022/03/29 05:04:10;;;;;;;10.55;7.55;;;18.70;44.40;17.80;101086.00;;;;5063794;28;20501;-65
2022/03/29 05:06:56;;;;;;;11.63;7.47;;;18.70;44.50;17.80;101079.00;;;;5058804;28;20094;-64
2022/03/29 05:09:42;;;;;;;10.65;7.75;;;18.70;44.50;17.80;101085.00;;;;5060550;28;20478;-64
2022/03/29 05:12:29;;;;;;;12.30;8.25;;;18.60;44.40;17.80;101077.00;;;;5042590;28;20072;-64
2022/03/29 05:15:17;;;;;;;11.57;8.32;;;18.70;44.50;17.80;101077.00;;;;5059929;28;20057;-64
2022/03/29 05:18:03;;;;;;;11.50;8.65;;;18.70;44.50;17.80;101078.00;;;;5054903;28;20682;-64
2022/03/29 05:20:49;;;;;;;11.57;7.82;;;18.70;44.50;17.80;101075.00;;;;5054837;28;20465;-64
2022/03/29 05:23:35;;;;;;;12.82;9.00;;;18.70;44.50;17.80;101076.00;;;;5062235;28;20040;-64
2022/03/29 05:26:21;;;;;;;12.35;8.48;;;18.70;44.50;17.80;101070.00;;;;5050659;28;20391;-64
2022/03/29 05:29:09;;;;;;;14.65;10.07;;;18.70;44.50;17.80;101073.00;;;;5059161;28;20044;-65
2022/03/29 05:31:56;;;;;;;15.23;9.43;;;18.70;44.40;17.80;101074.00;;;;5050508;28;20079;-65
2022/03/29 05:34:42;;;;;;;14.63;9.40;;;18.70;44.50;17.80;101083.00;;;;5052600;28;20121;-65
2022/03/29 05:37:28;;;;;;;13.98;9.52;;;18.70;44.40;17.80;101072.00;;;;5058349;28;20044;-65
2022/03/29 05:40:14;;;;;;;12.93;8.65;;;18.70;44.40;17.80;101077.00;;;;5058385;28;20048;-65
2022/03/29 05:43:00;;;;;;;15.55;10.02;;;18.70;44.40;17.80;101086.00;;;;5047872;28;20041;-65
2022/03/29 05:48:51;;;;;;;13.73;9.52;;;18.60;44.30;17.80;101083.00;;;;5055732;28;20458;-65
2022/03/29 05:48:55;;;;;;;11.93;8.50;;;18.60;44.30;17.80;101089.00;;;;5045230;28;20140;-65
2022/03/29 05:51:42;;;;;;;15.43;9.52;;;18.70;44.40;17.80;101081.00;;;;5056241;28;20048;-65
2022/03/29 05:54:28;;;;;;;13.60;9.10;;;18.70;44.40;17.80;101086.00;;;;5039527;28;20106;-65
2022/03/29 05:57:15;;;;;;;14.80;9.93;;;18.70;44.40;17.80;101082.00;;;;5057746;28;20404;-65
2022/03/29 06:00:01;;;;;;;13.40;8.65;;;18.70;44.40;17.80;101089.00;;;;5048612;28;20084;-65
2022/03/29 06:02:47;;;;;;;13.70;8.65;;;18.70;44.40;17.80;101087.00;;;;5053402;28;20044;-65
2022/03/29 06:05:34;;;;;;;12.68;9.32;;;18.70;44.30;17.80;101084.00;;;;5043374;28;20406;-64
2022/03/29 06:08:20;;;;;;;16.57;9.57;;;18.70;44.30;17.80;101092.00;;;;5058513;28;20127;-64
2022/03/29 06:11:07;;;;;;;13.05;8.82;;;18.70;44.30;17.80;101089.00;;;;5056718;28;20063;-65
2022/03/29 06:13:53;;;;;;;16.38;9.18;;;18.70;44.30;17.80;101087.00;;;;5056225;28;20048;-65
2022/03/29 06:16:39;;;;;;;14.32;10.13;;;18.70;44.30;17.80;101089.00;;;;5041143;28;20132;-65
2022/03/29 06:19:25;;;;;;;13.35;9.38;;;18.70;44.30;17.80;101091.00;;;;5031188;28;20109;-65
2022/03/29 06:22:11;;;;;;;12.35;8.77;;;18.70;44.30;17.80;101089.00;;;;5052310;28;20045;-65
2022/03/29 06:24:58;;;;;;;14.35;9.25;;;18.70;44.20;17.80;101092.00;;;;5032718;28;20044;-64
2022/03/29 06:27:44;;;;;;;14.07;8.73;;;18.70;44.20;17.80;101082.00;;;;5054284;28;20037;-65
2022/03/29 06:30:30;;;;;;;14.15;9.10;;;18.70;44.20;17.80;101084.00;;;;5066403;28;20037;-65
2022/03/29 06:33:16;;;;;;;14.30;9.52;;;18.70;44.20;17.80;101082.00;;;;5038859;28;20041;-65
2022/03/29 06:36:02;;;;;;;12.73;8.60;;;18.70;44.20;17.80;101080.00;;;;5044101;28;20041;-65
2022/03/29 06:38:49;;;;;;;13.13;9.55;;;18.70;44.20;17.80;101082.00;;;;5054710;28;20094;-65
2022/03/29 06:41:35;;;;;;;12.40;9.00;;;18.60;44.10;17.80;101082.00;;;;5052670;28;20427;-65
2022/03/29 06:44:21;;;;;;;15.68;9.27;;;18.70;44.10;17.80;101084.00;;;;5060478;28;20041;-65
2022/03/29 06:47:07;;;;;;;13.68;9.27;;;18.70;44.20;17.80;101084.00;;;;5052946;28;20045;-65
2022/03/29 06:49:53;;;;;;;13.40;9.05;;;18.70;44.10;17.80;101080.00;;;;5061897;28;20066;-64
2022/03/29 06:52:41;;;;;;;11.45;8.02;;;18.70;44.10;17.80;101079.00;;;;5054806;28;20048;-65
2022/03/29 06:55:28;;;;;;;12.23;8.18;;;18.70;44.00;17.80;101071.00;;;;5041125;28;20465;-64
2022/03/29 06:58:14;;;;;;;13.65;9.15;;;18.60;43.90;17.80;101079.00;;;;5045008;28;20447;-65
2022/03/29 07:01:00;;;;;;;12.52;8.13;;;18.70;44.00;17.80;101078.00;;;;5061040;28;20178;-64
2022/03/29 07:03:46;;;;;;;14.30;8.60;;;18.70;44.00;17.80;101072.00;;;;5041960;28;20047;-65
2022/03/29 07:06:33;;;;;;;11.38;7.78;;;18.70;44.00;17.80;101072.00;;;;5053623;28;20409;-64
2022/03/29 07:12:26;;;;;;;12.30;7.63;;;18.60;43.90;17.80;101065.00;;;;5061360;28;20148;-65
2022/03/29 07:15:12;;;;;;;14.70;9.27;;;18.70;44.00;17.70;101070.00;;;;5073584;28;20071;-64
2022/03/29 07:17:59;;;;;;;12.73;8.88;;;18.70;44.00;17.70;101067.00;;;;5046829;28;20045;-64
2022/03/29 07:20:45;;;;;;;15.18;7.90;;;18.60;43.90;17.70;101067.00;;;;5043717;28;20110;-65
2022/03/29 07:23:31;;;;;;;13.85;9.20;;;18.60;43.90;17.70;101068.00;;;;5054768;28;20339;-65
2022/03/29 07:26:17;;;;;;;11.88;7.63;;;18.60;43.90;17.70;101066.00;;;;5056158;28;20044;-65
2022/03/29 07:29:04;;;;;;;12.00;8.10;;;18.60;43.90;17.70;101070.00;;;;5056962;28;20037;-65
2022/03/29 07:31:50;;;;;;;10.68;7.53;;;18.60;43.90;17.70;101069.00;;;;5040182;28;20330;-65
2022/03/29 07:34:37;;;;;;;11.82;7.55;;;18.60;44.00;17.70;101071.00;;;;5061591;28;20041;-65
2022/03/29 07:37:23;;;;;;;18.00;8.57;;;18.70;44.00;17.70;101067.00;;;;5058084;28;20049;-65
2022/03/29 07:40:11;;;;;;;11.52;8.05;;;18.60;43.90;17.70;101067.00;;;;5038259;28;20049;-64
2022/03/29 07:42:58;;;;;;;10.57;7.13;;;18.60;43.90;17.70;101065.00;;;;5044870;28;20053;-65
2022/03/29 07:45:44;;;;;;;11.82;7.78;;;18.60;43.90;17.70;101071.00;;;;5036604;28;20487;-64
2022/03/29 07:48:30;;;;;;;9.80;7.22;;;18.60;43.90;17.70;101064.00;;;;5053208;28;20067;-65
2022/03/29 07:51:17;;;;;;;12.98;7.80;;;18.60;43.80;17.70;101060.00;;;;5050932;28;20037;-64
2022/03/29 07:54:04;;;;;;;9.48;7.63;;;18.60;43.90;17.70;101065.00;;;;5043468;28;20098;-64
2022/03/29 07:56:50;;;;;;;11.73;7.97;;;18.60;43.80;17.70;101062.00;;;;5049150;28;20045;-64
2022/03/29 07:59:37;;;;;;;11.57;7.85;;;18.60;43.80;17.70;101057.00;;;;5058082;28;20111;-64
2022/03/29 08:02:23;;;;;;;11.05;7.38;;;18.60;43.80;17.70;101067.00;;;;5047929;28;20877;-64
2022/03/29 08:05:09;;;;;;;10.35;7.40;;;18.60;43.80;17.70;101058.00;;;;5065271;28;20037;-64
2022/03/29 08:07:59;;;;;;;13.77;7.72;;;18.60;43.80;17.70;101051.00;;;;5055541;28;20099;-65
2022/03/29 08:10:46;;;;;;;10.10;6.97;;;18.60;43.80;17.70;101048.00;;;;5051565;28;20033;-64
2022/03/29 08:13:32;;;;;;;11.40;6.95;;;18.70;43.90;17.70;101049.00;;;;5054521;28;20037;-64
2022/03/29 08:16:18;;;;;;;14.88;7.60;;;18.60;43.70;17.70;101049.00;;;;5063735;28;20044;-64
2022/03/29 08:19:04;;;;;;;9.55;7.05;;;18.60;43.70;17.70;101049.00;;;;5064597;28;20492;-64
2022/03/29 08:21:52;;;;;;;9.77;7.63;;;18.60;43.70;17.70;101037.00;;;;5052361;28;20044;-64
2022/03/29 08:24:38;;;;;;;9.05;6.53;;;18.70;43.70;17.70;101042.00;;;;5063560;28;20450;-64
2022/03/29 08:27:24;;;;;;;11.10;6.97;;;18.60;43.60;17.70;101036.00;;;;5058433;28;20067;-64
2022/03/29 08:30:11;;;;;;;8.50;6.45;;;18.60;43.60;17.70;101038.00;;;;5062358;28;20402;-64
2022/03/29 08:32:58;;;;;;;9.55;7.25;;;18.60;44.30;17.70;101042.00;;;;5063062;28;20489;-64
2022/03/29 08:35:45;;;;;;;9.47;7.03;;;18.60;43.60;17.70;101051.00;;;;5054384;28;20086;-65
2022/03/29 08:38:31;;;;;;;8.20;6.38;;;18.70;43.60;17.70;101046.00;;;;5068145;28;20052;-65
2022/03/29 08:41:17;;;;;;;11.80;6.68;;;18.60;43.60;17.70;101040.00;;;;5057832;28;20037;-64
2022/03/29 08:44:04;;;;;;;9.38;6.93;;;18.60;43.60;17.70;101049.00;;;;5047591;28;20049;-64
2022/03/29 08:46:50;;;;;;;11.27;6.30;;;18.60;43.60;17.70;101046.00;;;;5043446;28;20074;-64
2022/03/29 08:49:36;;;;;;;10.48;7.10;;;18.60;43.60;17.70;101042.00;;;;5043655;28;20275;-64
2022/03/29 08:52:22;;;;;;;9.00;6.57;;;18.60;43.50;17.70;101039.00;;;;5048323;28;20095;-64
2022/03/29 08:55:09;;;;;;;10.73;6.95;;;18.70;43.60;17.70;101036.00;;;;5043297;28;20390;-64
2022/03/29 08:57:59;;;;;;;9.60;6.20;;;18.60;43.50;17.70;101032.00;;;;5047528;28;20047;-64
2022/03/29 09:00:46;;;;;;;9.00;6.70;;;18.60;43.50;17.70;101030.00;;;;5044137;28;20093;-64
2022/03/29 09:03:32;;;;;;;9.13;6.60;;;18.70;43.50;17.80;101036.00;;;;5045313;28;20106;-64
2022/03/29 09:06:18;;;;;;;11.90;7.30;;;18.60;43.50;17.70;101040.00;;;;5059589;28;20486;-64
2022/03/29 09:09:04;;;;;;;10.35;6.57;;;18.60;43.50;17.70;101038.00;;;;5064453;28;20126;-64
2022/03/29 09:11:53;;;;;;;10.00;6.82;;;18.70;43.50;17.80;101038.00;;;;5056153;28;20076;-64
2022/03/29 09:14:57;;;;;;;11.85;6.95;;;18.70;43.50;17.70;101046.00;;;;5055699;28;20062;-64
2022/03/29 09:17:46;;;;;;;9.20;6.80;;;18.70;43.50;17.80;101031.00;;;;5047773;28;20043;-64
2022/03/29 09:20:32;;;;;;;10.00;7.22;;;18.70;43.50;17.70;101030.00;;;;5055924;28;20116;-64
2022/03/29 09:23:20;;;;;;;10.07;7.13;;;18.70;43.50;17.70;101036.00;;;;5057057;28;20398;-64
2022/03/29 09:26:06;;;;;;;8.55;6.28;;;18.70;43.50;17.70;101017.00;;;;5049592;28;20470;-64
2022/03/29 09:28:53;;;;;;;9.95;6.88;;;18.70;43.50;17.80;101032.00;;;;5041973;28;20036;-64
2022/03/29 09:31:39;;;;;;;8.48;6.68;;;18.70;43.50;17.80;101020.00;;;;5053252;28;20264;-65
2022/03/29 09:34:25;;;;;;;10.23;7.18;;;18.60;43.40;17.80;101023.00;;;;5034833;28;20486;-64
2022/03/29 09:37:11;;;;;;;10.07;6.53;;;18.70;43.50;17.80;101019.00;;;;5057423;28;20094;-64
2022/03/29 09:39:57;;;;;;;11.13;7.30;;;18.70;43.50;17.80;101021.00;;;;5063328;28;20044;-64
2022/03/29 09:43:03;;;;;;;11.15;7.50;;;18.70;43.40;17.80;101021.00;;;;5076784;28;20093;-64
2022/03/29 09:45:52;;;;;;;9.75;6.97;;;18.70;43.40;17.80;101019.00;;;;5060438;28;20043;-64
2022/03/29 09:48:39;;;;;;;9.52;6.82;;;18.70;43.40;17.80;101015.00;;;;5083616;28;20043;-65
2022/03/29 09:51:27;;;;;;;;;;;18.70;43.50;17.70;101012.00;;;;5068077;28;20051;-64
2022/03/29 09:54:13;;;;;;;9.05;6.47;;;18.70;43.60;17.70;101005.00;;;;5072072;28;19912;-64
2022/03/29 09:57:00;;;;;;;13.20;7.13;;;18.80;44.20;17.70;101003.00;;;;5076491;28;20036;-64
2022/03/29 09:59:49;;;;;;;12.30;7.30;;;18.70;43.50;17.70;100997.00;;;;5071009;28;20078;-64
2022/03/29 10:02:40;;;;;;;9.60;6.85;;;18.70;43.40;17.70;100996.00;;;;5074624;28;20081;-64
2022/03/29 10:05:26;;;;;;;9.35;6.57;;;18.70;43.40;17.70;100988.00;;;;5067091;28;20397;-64
2022/03/29 10:11:19;;;;;;;11.23;6.80;;;18.70;43.40;17.70;100989.00;;;;5064601;28;20044;-65
2022/03/29 10:14:06;;;;;;;11.25;7.38;;;18.70;43.50;17.70;100993.00;;;;5047783;28;20072;-64
2022/03/29 10:16:54;;;;;;;10.80;7.35;;;18.70;43.50;17.70;100989.00;;;;5075029;28;20040;-64
2022/03/29 10:19:41;;;;;;;10.95;7.05;;;18.70;43.40;17.70;100989.00;;;;5075191;28;20036;-64
2022/03/29 10:22:27;;;;;;;9.40;6.72;;;18.70;43.40;17.70;100993.00;;;;5079723;28;20060;-64
2022/03/29 10:25:13;;;;;;;11.07;7.47;;;18.70;43.40;17.70;100983.00;;;;5083711;28;20048;-64
2022/03/29 10:28:00;;;;;;;10.15;6.97;;;18.70;43.40;17.80;100989.00;;;;5080111;28;20051;-64
2022/03/29 10:30:47;;;;;;;9.80;7.07;;;18.70;43.40;17.80;100983.00;;;;5064008;28;20085;-65
2022/03/29 10:33:33;;;;;;;9.95;7.10;;;18.70;43.40;17.80;100975.00;;;;5046424;28;20478;-64
2022/03/29 10:36:19;;;;;;;11.23;7.13;;;18.70;43.40;17.80;100968.00;;;;5068306;28;20036;-64
2022/03/29 10:39:05;;;;;;;9.73;6.90;;;18.70;43.40;17.80;100970.00;;;;5070261;28;20430;-64
2022/03/29 10:41:51;;;;;;;9.07;6.55;;;18.70;43.40;17.80;100971.00;;;;5049239;28;20069;-65
2022/03/29 10:45:19;;;;;;;9.48;6.88;;;18.70;43.40;17.80;100966.00;;;;5067000;28;20048;-64
2022/03/29 10:48:11;;;;;;;10.35;7.35;;;18.70;43.40;17.80;100955.00;;;;4998714;28;20099;-64
2022/03/29 10:50:58;;;;;;;10.63;6.68;;;18.80;43.40;17.80;100956.00;;;;4980244;28;20046;-64
2022/03/29 10:53:46;;;;;;;10.65;6.70;;;18.70;43.30;17.80;100955.00;;;;5061872;28;20035;-64
2022/03/29 10:56:32;;;;;;;10.02;7.50;;;18.70;43.30;17.80;100950.00;;;;5063654;28;20040;-64
2022/03/29 10:59:18;;;;;;;10.63;6.80;;;18.80;43.40;17.80;100951.00;;;;5059925;28;20040;-64
2022/03/29 11:02:32;;;;;;;10.25;6.95;;;18.80;43.30;17.80;100939.00;;;;5076876;28;20049;-64
2022/03/29 11:05:18;;;;;;;10.80;6.43;;;18.80;43.30;17.80;100928.00;;;;5070460;28;20040;-64
2022/03/29 11:08:11;;;;;;;9.25;6.28;;;18.90;43.40;17.80;100932.00;;;;5058782;28;20466;-64
2022/03/29 11:10:58;;;;;;;11.38;6.72;;;18.70;43.20;17.80;100926.00;;;;5044260;28;20032;-64
2022/03/29 11:13:44;;;;;;;10.35;6.32;;;18.70;43.20;17.80;100928.00;;;;5058585;28;20493;-64
2022/03/29 11:16:31;;;;;;;9.10;6.28;;;18.80;43.30;17.80;100913.00;;;;5062478;28;20051;-64
2022/03/29 11:19:44;;;;;;;8.95;6.20;;;18.90;43.30;17.80;100911.00;;;;5042523;28;20044;-64
2022/03/29 11:22:36;;;;;;;9.85;6.78;;;18.80;43.30;17.80;100909.00;;;;5060118;28;20045;-64
2022/03/29 11:25:22;;;;;;;10.00;6.30;;;18.80;43.30;17.80;100905.00;;;;5062994;28;20036;-64
2022/03/29 11:28:14;;;;;;;9.82;6.88;;;18.80;43.20;17.80;100910.00;;;;5054184;28;20402;-64
2022/03/29 11:31:00;;;;;;;8.77;5.88;;;18.80;43.20;17.90;100914.00;;;;5048521;28;20457;-64
2022/03/29 11:33:49;;;;;;;11.05;6.35;;;18.80;43.20;17.90;100912.00;;;;5057572;28;20048;-64
2022/03/29 11:36:37;;;;;;;9.50;6.60;;;18.80;43.20;17.90;100900.00;;;;5045605;28;20055;-64
2022/03/29 11:39:26;;;;;;;9.95;6.47;;;18.90;43.20;17.90;100906.00;;;;5046528;28;20048;-64
2022/03/29 11:42:14;;;;;;;9.02;6.55;;;18.80;43.20;17.90;100900.00;;;;5071721;28;20041;-64
2022/03/29 11:45:00;;;;;;;9.88;6.40;;;18.90;43.20;17.90;100885.00;;;;5059223;28;20052;-64
2022/03/29 11:48:08;;;;;;;10.50;6.97;;;18.90;43.10;17.90;100883.00;;;;5043744;28;20512;-64
2022/03/29 11:50:57;;;;;;;12.52;7.05;;;18.90;43.20;17.90;100881.00;;;;5045675;28;20032;-64
2022/03/29 11:53:43;;;;;;;9.18;6.25;;;18.90;43.20;17.90;100890.00;;;;5056221;28;20041;-64
2022/03/29 11:56:29;;;;;;;10.02;7.00;;;18.90;43.20;17.90;100880.00;;;;5061634;28;20069;-64
2022/03/29 11:59:15;;;;;;;10.07;6.93;;;18.90;43.20;17.90;100875.00;;;;5049653;28;20032;-64
2022/03/29 12:02:05;;;;;;;13.73;7.43;;;18.90;43.20;17.90;100866.00;;;;5055249;28;20045;-64
2022/03/29 12:04:51;;;;;;;10.48;7.03;;;18.90;43.00;17.90;100866.00;;;;5029555;28;20464;-64
2022/03/29 12:07:43;;;;;;;11.70;7.35;;;19.00;43.10;17.90;100861.00;;;;5056717;28;20099;-64
2022/03/29 12:10:36;;;;;;;10.50;7.57;;;19.00;43.10;17.90;100852.00;;;;5047053;28;20242;-64
2022/03/29 12:13:22;;;;;;;12.35;7.20;;;18.90;43.00;17.90;100844.00;;;;5044521;28;20045;-64
2022/03/29 12:16:24;;;;;;;11.32;7.68;;;18.90;43.00;17.90;100845.00;;;;5060295;28;20453;-64
2022/03/29 12:19:13;;;;;;;12.80;8.13;;;18.90;42.90;17.90;100831.00;;;;5056544;28;20449;-64